Terminal Aerodrome Forecast
Issued by NWS Jackson, KY

Home | Current Version | Previous Version | Text Only | Print | Product List | Glossary On
Versions: 1 2 3 4 5 6 7 8 9 10 11 12 13 14 15 16 17 18
000
FTUS43 KJKL 201739
TAFLOZ
TAF
KLOZ 201739Z 2018/2118 VRB05KT P6SM SCT150 BKN250
     FM210100 VRB03KT P6SM VCSH OVC050
     FM210700 34004KT 4SM -SHRA BR OVC025
     FM211000 31006KT 2SM -SHRA BR OVC007
     FM211600 30006KT P6SM OVC015=

USA.gov is the U.S. government's official web portal to all federal, state and local government web resources and services.